Latest Coastal Weather Observations for Port Fairy

IDV60701

Issued at 5:21 pm EDT Monday 26 January 2015 (issued every 10 minutes, with the page automatically refreshed every 10 minutes)

About coastal observations | Map of coastal stations | Coastal observations for VIC | Marine services | Other Formats
Station Details ID: 090175 Name: PORT FAIRY AWS Lat: -38.39 Lon: 142.23 Height: 10.0 m
Data from the previous 72 hours. | See also: Recent months at Port Fairy
Date/Time
EDT
Temp

°C
Wind Pressure Rain
since 9am
mm
Weather Cloud Vis
km
Sea
Height
m
Swell
Dir
 
Speed
knots
Gust
knots
hPa Trend Height
m
Period
s
Dir
26/05:00pm 17.7 S 9 13 1017.9 - 0.0 - - - - - - -
26/04:30pm 17.9 S 9 13 1018.0 - 0.0 - - - - - - -
26/04:00pm 17.9 S 9 13 1017.9 - 0.0 - - - - - - -
26/03:30pm 18.1 S 10 15 1017.9 - 0.0 - - - - - - -
26/03:00pm 17.8 S 10 15 1017.8 - 0.0 - - - - - - -
26/02:30pm 18.2 S 9 13 1017.8 - 0.0 - - - - - - -
26/02:00pm 18.1 S 8 11 1018.0 - 0.0 - - - - - - -
26/01:30pm 17.9 SSW 8 12 1018.2 - 0.0 - - - - - - -
26/01:00pm 17.7 S 8 12 1018.3 - 0.0 - - - - - - -
26/12:30pm 17.9 SSW 8 12 1018.2 - 0.0 - - - - - - -
26/12:00pm 16.4 S 7 10 1018.3 - 0.0 - - - - - - -
26/11:30am 17.6 SSW 6 8 1018.6 - 0.0 - - - - - - -
26/11:00am 17.4 SSW 5 8 1018.5 - 0.0 - - - - - - -
26/10:30am 15.6 S 5 8 1018.3 - 0.0 - - - - - - -
26/10:00am 15.3 S 7 9 1018.2 - 0.0 - - - - - - -
26/09:30am 14.9 SSW 10 15 1017.9 - 0.0 - - - - - - -
26/09:00am 14.8 SSW 11 16 1017.6 - 0.4 - - - - - - -
26/08:30am 16.2 SSE 4 6 1017.3 - 0.4 - - - - - - -
26/08:00am 14.6 SSW 5 8 1016.9 - 0.4 - - - - - - -
26/07:30am 13.5 S 5 9 1016.6 - 0.4 - - - - - - -
26/07:00am 10.6 N 1 3 1016.2 - 0.4 - - - - - - -
26/06:30am 10.1 N 2 4 1015.9 - 0.4 - - - - - - -
26/06:00am 13.9 SSW 7 10 1015.5 - 0.4 - - - - - - -
26/05:30am 13.9 SSW 8 11 1015.1 - 0.4 - - - - - - -
26/05:00am 13.8 SSW 7 10 1014.8 - 0.4 - - - - - - -
26/04:30am 13.9 SSW 8 12 1014.6 - 0.4 - - - - - - -
26/04:00am 14.1 SSW 10 14 1014.6 - 0.4 - - - - - - -
26/03:30am 14.1 SSW 9 13 1014.4 - 0.4 - - - - - - -
26/03:00am 14.0 SSW 10 14 1014.4 - 0.4 - - - - - - -
26/02:30am 12.7 WSW 7 13 1014.4 - 0.4 - - - - - - -
26/02:00am 11.6 W 7 14 1014.3 - 0.4 - - - - - - -
26/01:30am 13.9 SW 11 17 1014.4 - 0.4 - - - - - - -
26/01:00am 14.3 SW 13 18 1014.3 - 0.4 - - - - - - -
26/12:30am 14.4 SW 11 15 1014.1 - 0.4 - - - - - - -
26/12:00am 14.2 SW 9 13 1014.1 - 0.4 - - - - - - -
 
Date/Time
EDT
Temp

°C
Wind Pressure Rain
since 9am
mm
Weather Cloud Vis
km
Sea
Height
m
Swell
Dir
 
Speed
knots
Gust
knots
hPa Trend Height
m
Period
s
Dir
25/11:30pm 14.2 SW 15 18 1014.1 - 0.4 - - - - - - -
25/11:00pm 14.2 WSW 10 15 1014.0 - 0.4 - - - - - - -
25/10:30pm 14.2 SW 12 15 1013.9 - 0.4 - - - - - - -
25/10:00pm 14.3 WSW 13 17 1013.6 - 0.4 - - - - - - -
25/09:30pm 14.1 WSW 13 20 1013.3 - 0.4 - - - - - - -
25/09:00pm 13.2 W 8 16 1013.1 - 0.4 - - - - - - -
25/08:30pm 13.5 W 11 17 1012.9 - 0.4 - - - - - - -
25/08:00pm 14.5 WSW 13 17 1012.8 - 0.4 - - - - - - -
25/07:30pm 15.3 WSW 15 20 1012.5 - 0.4 - - - - - - -
25/07:00pm 16.1 SW 15 20 1012.3 - 0.4 - - - - - - -
25/06:30pm 16.6 WSW 15 20 1012.0 - 0.4 - - - - - - -
25/06:00pm 16.6 WSW 15 20 1011.9 - 0.4 - - - - - - -
25/05:30pm 15.4 WSW 18 24 1011.8 - 0.4 - - - - - - -
25/05:00pm 16.1 WSW 18 24 1011.7 - 0.4 - - - - - - -
25/04:30pm 17.7 WSW 18 25 1011.3 - 0.4 - - - - - - -
25/04:00pm 17.7 WSW 18 28 1011.2 - 0.4 - - - - - - -
25/03:43pm 15.9 WSW 20 31 1011.3 - 0.4 - - - - - - -
25/03:30pm 17.1 WSW 21 26 1011.1 - 0.4 - - - - - - -
25/03:00pm 17.9 WSW 23 29 1010.9 - 0.4 - - - - - - -
25/02:30pm 17.8 W 19 25 1010.8 - 0.4 - - - - - - -
25/02:00pm 16.2 WSW 17 25 1010.7 - 0.4 - - - - - - -
25/01:30pm 13.8 W 16 23 1010.7 - 0.4 - - - - - - -
25/01:00pm 16.7 WSW 20 26 1010.3 - 0.0 - - - - - - -
25/12:30pm 16.2 WSW 20 27 1010.2 - 0.0 - - - - - - -
25/12:15pm 17.3 W 18 28 1010.0 - 0.0 - - - - - - -
25/12:00pm 16.0 W 18 25 1009.8 - 0.0 - - - - - - -
25/11:30am 16.3 W 18 28 1009.5 - 0.0 - - - - - - -
25/11:27am 16.8 W 17 28 1009.5 - 0.0 - - - - - - -
25/11:00am 17.3 WSW 17 24 1009.3 - 0.0 - - - - - - -
25/10:30am 16.2 WSW 20 26 1009.0 - 0.0 - - - - - - -
25/10:03am 15.9 W 17 28 1008.7 - 0.0 - - - - - - -
25/10:00am 15.7 W 17 22 1008.7 - 0.0 - - - - - - -
25/09:30am 15.6 WSW 19 24 1008.3 - 0.0 - - - - - - -
25/09:00am 15.3 WSW 18 26 1007.9 - 6.2 - - - - - - -
25/08:30am 15.3 WSW 19 25 1007.4 - 6.2 - - - - - - -
25/08:00am 14.7 WSW 17 23 1007.0 - 6.2 - - - - - - -
25/07:30am 14.1 WSW 19 25 1006.5 - 6.2 - - - - - - -
25/07:00am 14.2 WSW 17 22 1006.4 - 6.2 - - - - - - -
25/06:30am 14.4 WSW 18 25 1006.1 - 6.2 - - - - - - -
25/06:00am 13.9 W 15 21 1005.6 - 6.2 - - - - - - -
25/05:30am 14.1 WSW 20 26 1005.5 - 6.2 - - - - - - -
25/05:00am 14.0 W 16 23 1005.1 - 6.2 - - - - - - -
25/04:30am 14.5 WSW 19 26 1004.9 - 6.2 - - - - - - -
25/04:00am 14.7 WSW 19 25 1004.9 - 6.2 - - - - - - -
25/03:30am 14.2 WSW 13 21 1004.7 - 6.2 - - - - - - -
25/03:00am 14.3 WSW 16 22 1004.9 - 6.2 Recent precip. - - - - - -
25/02:30am 13.6 WSW 15 20 1004.6 - 6.2 - - - - - - -
25/02:04am 13.5 W 10 25 1004.7 - 6.0 - - - - - - -
25/02:00am 13.8 WNW 8 15 1004.5 - 6.0 - - - - - - -
25/01:30am 13.2 W 8 13 1004.6 - 3.4 - - - - - - -
25/01:00am 13.9 W 10 15 1004.5 - 3.2 - - - - - - -
25/12:30am 14.0 WSW 14 21 1004.9 - 2.6 - - - - - - -
25/12:00am 13.9 W 13 20 1004.4 - 1.8 Rain - - - - - -
 
Date/Time
EDT
Temp

°C
Wind Pressure Rain
since 9am
mm
Weather Cloud Vis
km
Sea
Height
m
Swell
Dir
 
Speed
knots
Gust
knots
hPa Trend Height
m
Period
s
Dir
24/11:30pm 16.8 WNW 9 15 1003.9 - 0.0 - - - - - - -
24/11:00pm 17.0 WNW 12 17 1004.0 - 0.0 - - - - - - -
24/10:30pm 17.1 W 13 19 1003.9 - 0.0 - - - - - - -
24/10:11pm 17.1 W 15 25 1003.7 - 0.0 - - - - - - -
24/10:00pm 17.1 W 16 25 1003.4 - 0.0 - - - - - - -
24/09:30pm 17.8 WSW 18 23 1003.0 - 0.0 - - - - - - -
24/09:00pm 18.9 W 16 23 1002.6 - 0.0 - - - - - - -
24/08:30pm 19.1 W 14 20 1002.3 - 0.0 - - - - - - -
24/08:00pm 20.1 W 13 18 1002.0 - 0.0 - - - - - - -
24/07:30pm 20.6 WSW 12 18 1001.9 - 0.0 - - - - - - -
24/07:00pm 20.4 WSW 16 20 1002.0 - 0.0 - - - - - - -
24/06:30pm 20.1 WSW 17 21 1001.9 - 0.0 - - - - - - -
24/06:00pm 22.6 W 16 21 1001.9 - 0.0 - - - - - - -
24/05:30pm 23.0 WSW 14 21 1002.2 - 0.0 - - - - - - -
24/05:00pm 21.9 WSW 17 25 1002.4 - 0.0 - - - - - - -
24/04:30pm 21.0 WSW 15 20 1003.0 - 0.0 - - - - - - -
24/04:00pm 20.4 WSW 16 20 1003.4 - 0.0 - - - - - - -
24/03:30pm 21.1 SW 12 16 1003.5 - 0.0 - - - - - - -
24/03:00pm 20.6 SW 14 18 1003.9 - 0.0 - - - - - - -
24/02:30pm 22.1 WSW 14 19 1003.8 - 0.0 - - - - - - -
24/02:00pm 21.3 WSW 12 16 1004.0 - 0.0 - - - - - - -
24/01:30pm 23.4 W 7 13 1004.2 - 0.0 - - - - - - -
24/01:00pm 23.3 NNW 6 11 1004.5 - 0.0 - - - - - - -
24/12:30pm 22.6 NW 6 10 1004.7 - 0.0 - - - - - - -
24/12:00pm 20.9 WNW 5 11 1005.1 - 0.0 - - - - - - -
24/11:30am 21.1 NW 5 8 1005.6 - 0.0 - - - - - - -
24/11:00am 19.5 NW 5 9 1005.8 - 0.0 - - - - - - -
24/10:30am 18.1 NW 8 13 1006.4 - 0.0 - - - - - - -
24/10:00am 17.3 WNW 9 14 1006.6 - 0.0 - - - - - - -
24/09:30am 17.1 WNW 9 12 1006.7 - 0.0 - - - - - - -
24/09:00am 16.6 WNW 6 11 1006.6 - 0.0 - - - - - - -
24/08:30am 14.6 WNW 4 8 1006.7 - 0.0 - - - - - - -
24/08:00am 12.9 NW 4 7 1006.3 - 0.0 - - - - - - -
24/07:30am 11.5 NW 4 6 1006.3 - 0.0 - - - - - - -
24/07:00am 10.9 NW 4 7 1006.4 - 0.0 - - - - - - -
24/06:30am 10.6 NW 5 6 1006.3 - 0.0 - - - - - - -
24/06:00am 11.1 NW 4 6 1006.3 - 0.0 - - - - - - -
24/05:30am 11.4 NW 4 5 1006.0 - 0.0 - - - - - - -
24/05:00am 11.6 NNW 3 4 1005.8 - 0.0 - - - - - - -
24/04:30am 12.0 WNW 1 2 1005.9 - 0.0 - - - - - - -
24/04:00am 12.5 WNW 3 4 1006.3 - 0.0 - - - - - - -
24/03:30am 12.8 N 3 4 1006.4 - 0.0 - - - - - - -
24/03:00am 13.2 NNE 2 4 1006.7 - 0.0 - - - - - - -
24/02:30am 14.2 NNE 4 5 1007.1 - 0.0 - - - - - - -
24/02:00am 14.3 N 2 4 1007.5 - 0.0 - - - - - - -
24/01:30am 15.1 ENE 3 6 1007.6 - 0.0 - - - - - - -
24/01:00am 15.5 ENE 4 7 1007.9 - 0.0 - - - - - - -
24/12:30am 15.9 NE 5 8 1008.3 - 0.0 - - - - - - -
24/12:00am 15.9 E 4 5 1008.5 - 0.0 - - - - - - -
 
Date/Time
EDT
Temp

°C
Wind Pressure Rain
since 9am
mm
Weather Cloud Vis
km
Sea
Height
m
Swell
Dir
 
Speed
knots
Gust
knots
hPa Trend Height
m
Period
s
Dir
23/11:30pm 15.8 ESE 3 5 1008.9 - 0.0 - - - - - - -
23/11:00pm 15.4 ESE 3 4 1009.0 - 0.0 - - - - - - -
23/10:30pm 15.4 SE 4 5 1009.0 - 0.0 - - - - - - -
23/10:00pm 15.1 SE 5 7 1008.7 - 0.0 - - - - - - -
23/09:30pm 15.7 SE 5 8 1008.6 - 0.0 - - - - - - -
23/09:00pm 16.2 SSE 6 9 1008.5 - 0.0 - - - - - - -
23/08:30pm 16.8 SSE 7 9 1008.4 - 0.0 - - - - - - -
23/08:00pm 16.9 SSE 6 8 1008.6 - 0.0 - - - - - - -
23/07:30pm 17.3 S 7 10 1008.5 - 0.0 - - - - - - -
23/07:00pm 17.6 SSW 9 12 1008.3 - 0.0 - - - - - - -
23/06:30pm 17.5 SSW 9 13 1008.4 - 0.0 - - - - - - -
23/06:00pm 18.6 SSW 11 14 1008.3 - 0.0 - - - - - - -
23/05:30pm 18.9 SSW 12 16 1008.1 - 0.0 - - - - - - -

Other Formats:

Comma delimited format used in spreadsheet applications
http://www.bom.gov.au/fwo/IDV60701/IDV60701.94830.axf

JavaScript Object Notation format (JSON) in row-major order
http://www.bom.gov.au/fwo/IDV60701/IDV60701.94830.json